Terminal Aerodrome Forecast
Issued by NWS Sterling, VA

Current Version | Previous Version | Text Only | Print | Product List | Glossary On
Versions: 1 2 3 4 5 6 7 8 9 10 11 12 13 14 15 16 17 18 19 20 21
000
FTUS41 KLWX 102341 RRA
TAFDCA
TAF
KDCA 102341Z 1100/1124 32006KT P6SM SKC
     FM110700 VRB03KT P6SM BKN100
     FM111100 07004KT P6SM BKN050
     FM111700 17008KT P6SM BKN090=

USA.gov is the U.S. government's official web portal to all federal, state and local government web resources and services.